createdAt,value
2023-02-19T00:05:22.159Z,100438.41
2023-02-19T00:10:44.883Z,100447.14
2023-02-19T00:16:07.300Z,100450.61
2023-02-19T00:21:31.766Z,100447.88
2023-02-19T00:26:55.419Z,100441.80
2023-02-19T00:32:17.740Z,100449.79
2023-02-19T00:37:40.002Z,100449.01
2023-02-19T00:43:02.216Z,100455.33
2023-02-19T00:48:24.427Z,100472.95
2023-02-19T00:53:46.967Z,100460.47
2023-02-19T00:59:09.853Z,100449.95
2023-02-19T01:04:32.225Z,100455.98
2023-02-19T01:09:54.592Z,100440.08
2023-02-19T01:15:17.138Z,100446.08
2023-02-19T01:20:40.073Z,100444.29
2023-02-19T01:26:02.426Z,100443.51
2023-02-19T01:31:29.035Z,100427.72
2023-02-19T01:36:52.341Z,100431.97
2023-02-19T01:42:21.327Z,100433.76
2023-02-19T01:47:43.599Z,100429.94
2023-02-19T01:53:07.635Z,100436.95
2023-02-19T01:58:31.027Z,100443.16
2023-02-19T02:03:56.472Z,100451.16
2023-02-19T02:09:37.086Z,100444.91
2023-02-19T02:15:01.084Z,100434.46
2023-02-19T02:20:47.397Z,100434.54
2023-02-19T02:26:47.513Z,100422.42
2023-02-19T02:32:26.224Z,100414.77
2023-02-19T02:37:51.919Z,100417.70
2023-02-19T02:43:15.732Z,100400.43
2023-02-19T02:49:01.510Z,100391.19
2023-02-19T02:54:57.590Z,100387.91
2023-02-19T03:00:21.889Z,100373.41
2023-02-19T03:05:52.402Z,100377.22
2023-02-19T03:11:38.493Z,100376.52
2023-02-19T03:17:23.712Z,100364.55
2023-02-19T03:22:49.361Z,100365.67
2023-02-19T03:28:17.682Z,100358.66
2023-02-19T03:33:42.226Z,100362.42
2023-02-19T03:39:13.963Z,100360.00
2023-02-19T03:44:55.096Z,100367.09
2023-02-19T03:50:36.870Z,100360.86
2023-02-19T03:56:22.507Z,100357.54
2023-02-19T04:01:55.332Z,100356.05
2023-02-19T04:07:18.210Z,100354.33
2023-02-19T04:12:44.147Z,100355.27
2023-02-19T04:18:20.227Z,100351.80
2023-02-19T04:23:47.282Z,100344.71
2023-02-19T04:29:09.601Z,100350.23
2023-02-19T04:34:31.911Z,100344.94
2023-02-19T04:39:54.129Z,100355.52
2023-02-19T04:45:16.618Z,100347.51
2023-02-19T04:50:40.144Z,100352.73
2023-02-19T04:56:02.498Z,100356.38
2023-02-19T05:01:25.240Z,100360.89
2023-02-19T05:06:48.089Z,100366.97
2023-02-19T05:12:10.846Z,100372.98
2023-02-19T05:17:33.028Z,100376.44
2023-02-19T05:22:55.229Z,100368.54
2023-02-19T05:28:20.467Z,100362.46
2023-02-19T05:33:44.603Z,100371.41
2023-02-19T05:39:09.714Z,100371.48
2023-02-19T05:44:31.887Z,100376.09
2023-02-19T05:49:54.167Z,100378.81
2023-02-19T05:55:17.632Z,100382.39
2023-02-19T06:00:40.254Z,100372.66
2023-02-19T06:06:02.507Z,100391.27
2023-02-19T06:11:25.081Z,100399.92
2023-02-19T06:16:47.486Z,100390.16
2023-02-19T06:22:09.672Z,100418.12
2023-02-19T06:27:31.923Z,100404.75
2023-02-19T06:32:54.674Z,100408.14
2023-02-19T06:38:16.856Z,100406.35
2023-02-19T06:43:39.410Z,100409.07
2023-02-19T06:49:02.819Z,100393.27
2023-02-19T06:54:26.560Z,100414.48
2023-02-19T06:59:48.880Z,100422.31
2023-02-19T07:05:11.335Z,100426.46
2023-02-19T07:10:33.616Z,100429.89
2023-02-19T07:15:55.835Z,100426.20
2023-02-19T07:21:25.304Z,100435.65
2023-02-19T07:26:50.237Z,100435.25
2023-02-19T07:32:14.022Z,100446.66
2023-02-19T07:37:37.854Z,100442.94
2023-02-19T07:43:01.029Z,100446.97
2023-02-19T07:48:26.532Z,100459.13
2023-02-19T07:53:54.211Z,100457.30
2023-02-19T07:59:20.255Z,100460.59
2023-02-19T08:04:46.297Z,100475.14
2023-02-19T08:10:28.903Z,100473.67
2023-02-19T08:15:56.292Z,100483.83
2023-02-19T08:21:21.340Z,100489.45
2023-02-19T08:26:43.807Z,100495.81
2023-02-19T08:32:06.209Z,100499.75
2023-02-19T08:37:29.165Z,100511.65
2023-02-19T08:42:52.756Z,100524.20
2023-02-19T08:48:18.678Z,100512.13
2023-02-19T08:53:45.862Z,100514.66
2023-02-19T08:59:08.993Z,100529.13
2023-02-19T09:04:32.135Z,100526.71
2023-02-19T09:09:58.247Z,100532.75
2023-02-19T09:15:21.006Z,100533.92
2023-02-19T09:20:43.466Z,100554.27
2023-02-19T09:26:14.426Z,100562.47
2023-02-19T09:31:37.172Z,100551.38
2023-02-19T09:37:02.627Z,100570.15
2023-02-19T09:42:33.104Z,100564.11
2023-02-19T09:47:55.671Z,100564.97
2023-02-19T09:53:25.425Z,100587.34
2023-02-19T09:59:09.862Z,100573.33
2023-02-19T10:04:32.052Z,100591.16
2023-02-19T10:10:06.726Z,100586.59
2023-02-19T10:16:00.331Z,100602.66
2023-02-19T10:21:25.248Z,100611.25
2023-02-19T10:26:47.534Z,100600.90
2023-02-19T10:37:58.579Z,100629.42
2023-02-19T10:43:30.165Z,100620.12
2023-02-19T10:48:59.731Z,100651.69
2023-02-19T10:54:32.814Z,100625.97
2023-02-19T11:00:09.608Z,100634.01
2023-02-19T11:05:33.914Z,100637.66
2023-02-19T11:11:01.028Z,100624.39
2023-02-19T11:16:24.776Z,100638.51
2023-02-19T11:21:48.808Z,100656.45
2023-02-19T11:27:12.452Z,100650.97
2023-02-19T11:32:49.060Z,100649.15
2023-02-19T11:38:18.214Z,100677.66
2023-02-19T11:44:09.411Z,100668.98
2023-02-19T11:49:57.728Z,100664.11
2023-02-19T11:55:56.221Z,100688.72
2023-02-19T12:07:49.575Z,100684.95
2023-02-19T12:14:04.318Z,100686.59
2023-02-19T12:19:57.248Z,100691.99
2023-02-19T12:25:34.532Z,100671.33
2023-02-19T12:31:16.963Z,100687.74
2023-02-19T12:37:09.620Z,100692.96
2023-02-19T12:42:50.980Z,100708.94
2023-02-19T12:48:48.862Z,100704.98
2023-02-19T12:54:33.783Z,100694.77
2023-02-19T13:00:07.835Z,100718.14
2023-02-19T13:06:20.633Z,100729.65
2023-02-19T13:11:50.344Z,100753.84
2023-02-19T13:17:35.664Z,100757.34
2023-02-19T13:23:33.175Z,100755.19
2023-02-19T13:29:47.970Z,100755.09
2023-02-19T13:36:03.412Z,100754.88
2023-02-19T13:41:38.158Z,100771.56
2023-02-19T13:47:05.018Z,100747.94
2023-02-19T13:52:44.124Z,100749.27
2023-02-19T13:58:24.769Z,100749.33
2023-02-19T14:04:03.854Z,100770.58
2023-02-19T14:09:47.084Z,100768.96
2023-02-19T14:15:28.627Z,100786.92
2023-02-19T14:20:57.109Z,100805.34
2023-02-19T14:26:20.608Z,100798.89
2023-02-19T14:31:50.658Z,100817.79
2023-02-19T14:37:09.902Z,100814.68
2023-02-19T14:42:35.246Z,100844.41
2023-02-19T14:47:59.626Z,100833.33
2023-02-19T14:53:25.223Z,100861.16
2023-02-19T14:58:49.254Z,100866.27
2023-02-19T15:04:13.260Z,100853.73
2023-02-19T15:09:37.989Z,100853.96
2023-02-19T15:15:02.882Z,100864.75
2023-02-19T15:20:31.407Z,100868.21
2023-02-19T15:25:55.761Z,100876.28
2023-02-19T15:31:21.681Z,100885.13
2023-02-19T15:36:47.370Z,100904.89
2023-02-19T15:42:15.765Z,100913.27
2023-02-19T15:48:03.473Z,100915.40
2023-02-19T15:53:34.579Z,100904.36
2023-02-19T15:59:10.507Z,100936.16
2023-02-19T16:04:34.066Z,100935.64
2023-02-19T16:09:59.589Z,100944.94
2023-02-19T16:15:27.224Z,100953.02
2023-02-19T16:20:51.162Z,100962.14
2023-02-19T16:26:22.997Z,100954.11
2023-02-19T16:31:45.234Z,100973.20
2023-02-19T16:37:09.006Z,100972.83
2023-02-19T16:42:31.701Z,101002.31
2023-02-19T16:47:55.661Z,101004.39
2023-02-19T16:53:26.683Z,101026.77
2023-02-19T16:58:48.915Z,101048.17
2023-02-19T17:04:19.663Z,101052.77
2023-02-19T17:09:42.011Z,101063.09
2023-02-19T17:15:04.400Z,101062.64
2023-02-19T17:20:39.526Z,101051.23
2023-02-19T17:26:01.908Z,101050.37
2023-02-19T17:31:24.984Z,101056.31
2023-02-19T17:36:48.408Z,101061.13
2023-02-19T17:42:11.444Z,101065.70
2023-02-19T17:47:33.935Z,101073.16
2023-02-19T17:52:56.164Z,101075.11
2023-02-19T17:58:18.958Z,101077.84
2023-02-19T18:03:41.784Z,101093.56
2023-02-19T18:09:08.883Z,101097.48
2023-02-19T18:14:31.570Z,101100.75
2023-02-19T18:19:55.454Z,101103.44
2023-02-19T18:25:18.378Z,101113.44
2023-02-19T18:30:41.480Z,101130.56
2023-02-19T18:36:03.968Z,101134.39
2023-02-19T18:41:28.065Z,101125.90
2023-02-19T18:46:50.268Z,101132.66
2023-02-19T18:52:13.360Z,101109.07
2023-02-19T18:57:36.951Z,101120.00
2023-02-19T19:03:05.353Z,101122.13
2023-02-19T19:08:30.537Z,101131.03
2023-02-19T19:13:52.635Z,101123.05
2023-02-19T19:19:15.636Z,101132.81
2023-02-19T19:24:37.989Z,101133.24
2023-02-19T19:30:00.505Z,101120.94
2023-02-19T19:35:24.396Z,101121.00
2023-02-19T19:40:48.882Z,101129.80
2023-02-19T19:46:15.238Z,101126.91
2023-02-19T19:51:46.473Z,101130.17
2023-02-19T19:57:11.526Z,101113.49
2023-02-19T20:02:36.319Z,101128.73
2023-02-19T20:08:00.667Z,101121.86
2023-02-19T20:13:26.748Z,101122.42
2023-02-19T20:18:49.669Z,101133.81
2023-02-19T20:24:12.974Z,101116.03
2023-02-19T20:29:37.364Z,101116.66
2023-02-19T20:35:00.783Z,101101.55
2023-02-19T20:40:27.063Z,101123.66
2023-02-19T20:45:51.884Z,101123.61
2023-02-19T20:51:16.204Z,101123.66
2023-02-19T20:56:39.994Z,101125.44
2023-02-19T21:02:05.619Z,101129.01
2023-02-19T21:07:30.655Z,101127.42
2023-02-19T21:12:56.735Z,101127.98
2023-02-19T21:18:21.296Z,101139.33
2023-02-19T21:23:45.858Z,101138.70
2023-02-19T21:29:14.400Z,101141.11
2023-02-19T21:34:41.378Z,101152.18
2023-02-19T21:40:06.270Z,101153.20
2023-02-19T21:45:30.751Z,101147.92
2023-02-19T21:50:55.392Z,101150.61
2023-02-19T21:56:21.657Z,101159.55
2023-02-19T22:01:51.417Z,101161.33
2023-02-19T22:07:15.615Z,101154.28
2023-02-19T22:12:40.207Z,101140.28
2023-02-19T22:18:05.279Z,101141.20
2023-02-19T22:23:29.515Z,101140.95
2023-02-19T22:28:53.783Z,101136.78
2023-02-19T22:34:18.787Z,101131.65
2023-02-19T22:39:44.106Z,101130.88
2023-02-19T22:45:07.709Z,101124.68
2023-02-19T22:50:38.147Z,101132.81
2023-02-19T22:56:02.894Z,101122.19
2023-02-19T23:01:28.421Z,101137.17
2023-02-19T23:06:55.556Z,101140.02
2023-02-19T23:12:24.586Z,101149.53
2023-02-19T23:17:48.464Z,101142.46
2023-02-19T23:23:11.464Z,101149.43
2023-02-19T23:28:36.627Z,101147.90
2023-02-19T23:34:00.911Z,101138.28
2023-02-19T23:39:27.040Z,101137.33
2023-02-19T23:44:53.289Z,101133.77
2023-02-19T23:50:17.604Z,101140.92
2023-02-19T23:55:41.456Z,101133.86
